createdAt,value
2023-04-24T00:02:12.223Z,9.38
2023-04-24T00:04:42.004Z,9.75
2023-04-24T00:07:11.157Z,9.88
2023-04-24T00:09:38.927Z,9.60
2023-04-24T00:12:06.620Z,8.63
2023-04-24T00:14:36.037Z,8.52
2023-04-24T00:17:05.574Z,10.60
2023-04-24T00:19:33.408Z,8.55
2023-04-24T00:22:01.483Z,10.68
2023-04-24T00:24:36.936Z,10.93
2023-04-24T00:27:04.704Z,10.52
2023-04-24T00:29:32.375Z,9.68
2023-04-24T00:32:00.091Z,9.50
2023-04-24T00:34:30.253Z,9.20
2023-04-24T00:36:58.625Z,8.50
2023-04-24T00:39:26.296Z,10.88
2023-04-24T00:41:56.246Z,9.18
2023-04-24T00:44:24.817Z,8.63
2023-04-24T00:46:55.845Z,9.15
2023-04-24T00:49:23.952Z,8.68
2023-04-24T00:51:52.234Z,8.90
2023-04-24T00:54:20.533Z,8.23
2023-04-24T00:56:48.449Z,7.18
2023-04-24T00:59:18.167Z,7.30
2023-04-24T01:01:46.708Z,7.68
2023-04-24T01:04:15.271Z,8.18
2023-04-24T01:06:44.977Z,7.63
2023-04-24T01:09:13.019Z,6.22
2023-04-24T01:11:41.568Z,7.32
2023-04-24T01:14:09.659Z,7.22
2023-04-24T01:16:40.139Z,8.93
2023-04-24T01:19:08.346Z,7.57
2023-04-24T01:21:38.239Z,8.70
2023-04-24T01:24:07.718Z,8.68
2023-04-24T01:26:36.039Z,8.20
2023-04-24T01:29:03.933Z,8.93
2023-04-24T01:31:31.984Z,7.97
2023-04-24T01:33:59.837Z,7.78
2023-04-24T01:36:28.888Z,7.68
2023-04-24T01:38:56.646Z,7.43
2023-04-24T01:41:26.102Z,8.48
2023-04-24T01:43:54.045Z,8.05
2023-04-24T01:46:22.017Z,7.85
2023-04-24T01:48:49.951Z,7.57
2023-04-24T01:51:17.765Z,7.72
2023-04-24T01:53:45.589Z,8.35
2023-04-24T01:56:13.510Z,8.45
2023-04-24T01:58:43.152Z,8.68
2023-04-24T02:01:10.844Z,8.18
2023-04-24T02:03:38.726Z,8.00
2023-04-24T02:06:07.297Z,7.13
2023-04-24T02:08:34.916Z,8.95
2023-04-24T02:11:03.379Z,7.28
2023-04-24T02:13:31.182Z,8.63
2023-04-24T02:16:00.610Z,8.15
2023-04-24T02:18:28.414Z,9.18
2023-04-24T02:20:56.176Z,7.75
2023-04-24T02:23:24.114Z,7.43
2023-04-24T02:25:51.854Z,7.40
2023-04-24T02:28:19.517Z,6.75
2023-04-24T02:30:47.217Z,7.05
2023-04-24T02:33:16.435Z,8.07
2023-04-24T02:35:44.104Z,7.45
2023-04-24T02:38:11.867Z,7.75
2023-04-24T02:40:39.524Z,7.78
2023-04-24T02:43:07.217Z,6.90
2023-04-24T02:45:35.817Z,8.13
2023-04-24T02:48:03.614Z,8.98
2023-04-24T02:50:32.898Z,8.23
2023-04-24T02:53:00.694Z,9.18
2023-04-24T02:55:29.038Z,8.05
2023-04-24T02:57:56.723Z,8.38
2023-04-24T03:00:25.246Z,11.00
2023-04-24T03:02:53.037Z,9.43
2023-04-24T03:05:20.905Z,8.38
2023-04-24T03:07:49.992Z,8.45
2023-04-24T03:10:17.628Z,6.55
2023-04-24T03:12:47.367Z,7.20
2023-04-24T03:15:15.053Z,9.57
2023-04-24T03:17:42.758Z,7.38
2023-04-24T03:20:11.049Z,8.30
2023-04-24T03:22:38.735Z,5.75
2023-04-24T03:25:10.483Z,6.80
2023-04-24T03:27:38.629Z,8.18
2023-04-24T03:30:06.863Z,6.22
2023-04-24T03:32:34.573Z,6.75
2023-04-24T03:35:02.444Z,9.07
2023-04-24T03:37:30.081Z,7.43
2023-04-24T03:39:57.686Z,8.00
2023-04-24T03:42:26.924Z,7.68
2023-04-24T03:44:54.598Z,8.88
2023-04-24T03:47:22.356Z,7.47
2023-04-24T03:49:50.097Z,5.55
2023-04-24T03:52:17.739Z,8.50
2023-04-24T03:54:45.381Z,8.02
2023-04-24T03:57:13.169Z,8.07
2023-04-24T03:59:43.454Z,7.47
2023-04-24T04:02:11.796Z,9.63
2023-04-24T04:04:47.360Z,6.82
2023-04-24T04:07:15.619Z,10.13
2023-04-24T04:09:43.821Z,10.55
2023-04-24T04:12:18.005Z,12.20
2023-04-24T04:14:48.836Z,11.13
2023-04-24T04:17:16.513Z,10.70
2023-04-24T04:19:44.588Z,12.77
2023-04-24T04:22:12.474Z,11.93
2023-04-24T04:24:50.810Z,10.57
2023-04-24T04:27:19.592Z,11.85
2023-04-24T04:29:48.620Z,14.18
2023-04-24T04:32:17.132Z,13.02
2023-04-24T04:34:50.600Z,11.70
2023-04-24T04:37:18.437Z,11.68
2023-04-24T04:39:46.232Z,10.60
2023-04-24T04:42:14.630Z,9.90
2023-04-24T04:44:49.587Z,10.80
2023-04-24T04:47:18.667Z,9.95
2023-04-24T04:49:46.520Z,10.82
2023-04-24T04:52:14.218Z,9.50
2023-04-24T04:54:43.990Z,10.98
2023-04-24T04:57:13.103Z,8.93
2023-04-24T04:59:42.425Z,9.70
2023-04-24T05:02:10.365Z,9.30
2023-04-24T05:04:39.498Z,10.93
2023-04-24T05:07:07.749Z,8.55
2023-04-24T05:09:35.690Z,9.32
2023-04-24T05:12:03.467Z,8.82
2023-04-24T05:14:31.938Z,10.25
2023-04-24T05:16:59.606Z,9.13
2023-04-24T05:19:27.333Z,10.23
2023-04-24T05:21:56.342Z,8.88
2023-04-24T05:24:24.030Z,9.32
2023-04-24T05:26:52.465Z,10.82
2023-04-24T05:29:20.241Z,8.68
2023-04-24T05:31:48.354Z,10.13
2023-04-24T05:34:17.723Z,9.50
2023-04-24T05:36:45.952Z,11.45
2023-04-24T05:39:15.152Z,12.68
2023-04-24T05:41:42.748Z,11.00
2023-04-24T05:44:10.398Z,9.43
2023-04-24T05:46:38.463Z,9.60
2023-04-24T05:49:06.122Z,10.13
2023-04-24T05:51:33.793Z,11.88
2023-04-24T05:54:01.541Z,11.82
2023-04-24T05:56:30.857Z,13.10
2023-04-24T05:58:58.604Z,12.23
2023-04-24T06:01:26.369Z,12.27
2023-04-24T06:03:54.654Z,12.02
2023-04-24T06:06:22.510Z,11.32
2023-04-24T06:08:50.212Z,10.82
2023-04-24T06:11:17.933Z,11.13
2023-04-24T06:13:47.063Z,12.18
2023-04-24T06:16:16.797Z,11.38
2023-04-24T06:18:44.577Z,10.43
2023-04-24T06:21:12.217Z,11.38
2023-04-24T06:23:40.240Z,12.98
2023-04-24T06:26:07.884Z,9.88
2023-04-24T06:28:36.054Z,10.40
2023-04-24T06:31:06.876Z,9.43
2023-04-24T06:33:34.499Z,11.13
2023-04-24T06:36:02.306Z,11.32
2023-04-24T06:38:30.705Z,9.88
2023-04-24T06:40:58.413Z,8.82
2023-04-24T06:43:26.137Z,10.30
2023-04-24T06:45:54.409Z,10.27
2023-04-24T06:48:23.473Z,10.82
2023-04-24T06:50:51.202Z,8.50
2023-04-24T06:53:18.866Z,8.55
2023-04-24T06:55:47.268Z,8.23
2023-04-24T06:58:16.067Z,8.20
2023-04-24T07:00:43.737Z,8.82
2023-04-24T07:03:11.657Z,8.40
2023-04-24T07:05:41.080Z,9.35
2023-04-24T07:08:09.637Z,10.85
2023-04-24T07:10:37.323Z,8.90
2023-04-24T07:13:08.014Z,9.40
2023-04-24T07:15:35.816Z,10.65
2023-04-24T07:18:05.606Z,9.02
2023-04-24T07:20:34.336Z,8.70
2023-04-24T07:23:03.458Z,11.15
2023-04-24T07:25:32.444Z,10.48
2023-04-24T07:28:00.190Z,9.75
2023-04-24T07:30:29.889Z,8.82
2023-04-24T07:32:57.569Z,10.25
2023-04-24T07:35:26.491Z,10.55
2023-04-24T07:37:54.968Z,8.00
2023-04-24T07:40:24.296Z,8.60
2023-04-24T07:42:52.065Z,9.82
2023-04-24T07:45:21.607Z,7.38
2023-04-24T07:47:49.324Z,7.38
2023-04-24T07:50:17.048Z,7.45
2023-04-24T07:52:45.766Z,5.55
2023-04-24T07:55:28.501Z,5.20
2023-04-24T07:57:58.075Z,5.07
2023-04-24T08:00:25.714Z,4.90
2023-04-24T08:02:53.584Z,3.65
2023-04-24T08:05:21.766Z,6.00
2023-04-24T08:07:51.368Z,4.55
2023-04-24T08:10:19.114Z,6.35
2023-04-24T08:12:46.810Z,4.60
2023-04-24T08:15:26.312Z,5.47
2023-04-24T08:17:54.398Z,3.90
2023-04-24T08:20:22.010Z,4.32
2023-04-24T08:22:49.966Z,5.88
2023-04-24T08:25:25.806Z,4.85
2023-04-24T08:27:53.502Z,5.07
2023-04-24T08:30:22.481Z,5.03
2023-04-24T08:32:50.273Z,4.88
2023-04-24T08:35:27.181Z,4.78
2023-04-24T08:37:55.667Z,5.18
2023-04-24T08:40:27.135Z,5.07
2023-04-24T08:42:56.567Z,4.70
2023-04-24T08:45:26.975Z,6.00
2023-04-24T08:47:55.525Z,4.93
2023-04-24T08:50:23.639Z,3.97
2023-04-24T08:52:51.880Z,4.55
2023-04-24T08:55:28.874Z,3.55
2023-04-24T08:57:56.968Z,4.55
2023-04-24T09:00:25.996Z,4.40
2023-04-24T09:02:57.044Z,3.85
2023-04-24T09:05:27.774Z,4.03
2023-04-24T09:07:57.458Z,3.53
2023-04-24T09:10:25.924Z,3.35
2023-04-24T09:12:54.160Z,3.90
2023-04-24T09:15:29.986Z,3.85
2023-04-24T09:17:57.781Z,3.63
2023-04-24T09:20:25.477Z,4.78
2023-04-24T09:22:56.658Z,4.65
2023-04-24T09:25:33.603Z,4.57
2023-04-24T09:28:03.028Z,4.22
2023-04-24T09:30:32.749Z,4.90
2023-04-24T09:33:13.107Z,4.82
2023-04-24T09:35:42.642Z,4.63
2023-04-24T09:38:16.518Z,6.15
2023-04-24T09:40:44.121Z,4.43
2023-04-24T09:43:12.634Z,4.50
2023-04-24T09:45:41.954Z,5.38
2023-04-24T09:48:11.764Z,5.30
2023-04-24T09:50:39.573Z,6.13
2023-04-24T09:53:09.864Z,5.60
2023-04-24T09:55:41.354Z,4.93
2023-04-24T09:58:10.362Z,5.13
2023-04-24T10:00:37.997Z,5.07
2023-04-24T10:03:08.012Z,6.88
2023-04-24T10:05:40.853Z,6.75
2023-04-24T10:08:09.201Z,6.93
2023-04-24T10:10:39.288Z,7.13
2023-04-24T10:13:07.806Z,5.15
2023-04-24T10:15:36.983Z,4.75
2023-04-24T10:18:07.380Z,5.35
2023-04-24T10:20:40.257Z,6.05
2023-04-24T10:23:08.213Z,5.05
2023-04-24T10:25:41.200Z,5.43
2023-04-24T10:28:10.986Z,6.97
2023-04-24T10:30:39.082Z,7.47
2023-04-24T10:33:07.716Z,7.38
2023-04-24T10:35:43.635Z,6.53
2023-04-24T10:38:11.815Z,6.80
2023-04-24T10:40:39.618Z,7.45
2023-04-24T10:43:10.606Z,5.85
2023-04-24T10:45:45.796Z,5.53
2023-04-24T10:48:15.054Z,7.57
2023-04-24T10:50:47.708Z,6.78
2023-04-24T10:53:17.172Z,6.88
2023-04-24T10:55:49.942Z,7.57
2023-04-24T10:58:22.895Z,7.38
2023-04-24T11:00:58.308Z,7.20
2023-04-24T11:03:27.181Z,5.85
2023-04-24T11:05:57.849Z,5.57
2023-04-24T11:08:27.066Z,6.35
2023-04-24T11:11:15.758Z,6.22
2023-04-24T11:14:01.844Z,5.13
2023-04-24T11:16:31.064Z,5.00
2023-04-24T11:19:02.647Z,5.78
2023-04-24T11:21:34.850Z,6.53
2023-04-24T11:24:17.283Z,6.57
2023-04-24T11:26:46.753Z,6.03
2023-04-24T11:29:14.322Z,6.03
2023-04-24T11:31:42.976Z,6.97
2023-04-24T11:34:11.381Z,5.97
2023-04-24T11:36:41.512Z,5.68
2023-04-24T11:39:09.100Z,6.93
2023-04-24T11:41:37.036Z,6.72
2023-04-24T11:44:05.164Z,6.78
2023-04-24T11:46:33.085Z,5.78
2023-04-24T11:49:01.443Z,5.57
2023-04-24T11:51:33.607Z,6.63
2023-04-24T11:54:10.194Z,5.45
2023-04-24T11:56:38.033Z,5.70
2023-04-24T11:59:06.421Z,5.63
2023-04-24T12:01:44.447Z,5.35
2023-04-24T12:04:12.230Z,5.60
2023-04-24T12:06:43.385Z,6.22
2023-04-24T12:09:18.221Z,5.30
2023-04-24T12:11:54.477Z,6.15
2023-04-24T12:14:22.072Z,6.40
2023-04-24T12:16:49.898Z,6.05
2023-04-24T12:19:20.268Z,6.03
2023-04-24T12:22:00.315Z,4.90
2023-04-24T12:24:29.302Z,5.93
2023-04-24T12:26:57.436Z,4.50
2023-04-24T12:29:25.020Z,5.13
2023-04-24T12:31:53.258Z,4.38
2023-04-24T12:34:21.526Z,4.40
2023-04-24T12:36:49.143Z,4.53
2023-04-24T12:39:17.471Z,3.65
2023-04-24T12:42:02.224Z,4.60
2023-04-24T12:44:35.355Z,4.00
2023-04-24T12:47:03.454Z,4.13
2023-04-24T12:49:32.422Z,3.20
2023-04-24T12:52:00.036Z,3.63
2023-04-24T12:54:27.791Z,3.90
2023-04-24T12:56:55.376Z,3.95
2023-04-24T12:59:24.283Z,3.20
2023-04-24T13:01:52.695Z,3.65
2023-04-24T13:04:20.460Z,3.05
2023-04-24T13:06:48.134Z,3.80
2023-04-24T13:09:15.721Z,3.50
2023-04-24T13:11:43.304Z,3.78
2023-04-24T13:14:10.937Z,3.22
2023-04-24T13:16:39.877Z,3.55
2023-04-24T13:19:07.417Z,3.15
2023-04-24T13:21:35.042Z,3.60
2023-04-24T13:24:02.778Z,2.88
2023-04-24T13:26:30.339Z,2.80
2023-04-24T13:28:57.918Z,2.60
2023-04-24T13:31:25.586Z,2.72
2023-04-24T13:33:54.524Z,2.85
2023-04-24T13:36:22.391Z,3.08
2023-04-24T13:38:49.938Z,3.00
2023-04-24T13:41:17.486Z,2.63
2023-04-24T13:43:45.240Z,2.80
2023-04-24T13:46:13.171Z,3.08
2023-04-24T13:48:40.857Z,3.03
2023-04-24T13:51:09.791Z,2.97
2023-04-24T13:53:39.357Z,3.35
2023-04-24T13:56:07.341Z,3.00
2023-04-24T13:58:34.921Z,2.72
2023-04-24T14:01:02.516Z,2.65
2023-04-24T14:03:30.216Z,2.70
2023-04-24T14:05:58.587Z,2.40
2023-04-24T14:08:29.253Z,2.20
2023-04-24T14:10:56.942Z,2.80
2023-04-24T14:13:25.233Z,2.30
2023-04-24T14:15:53.601Z,2.28
2023-04-24T14:18:21.427Z,2.25
2023-04-24T14:20:48.991Z,1.88
2023-04-24T14:23:18.544Z,1.80
2023-04-24T14:25:51.738Z,1.90
2023-04-24T14:28:19.409Z,2.17
2023-04-24T14:30:47.027Z,2.00
2023-04-24T14:33:14.583Z,2.33
2023-04-24T14:35:43.074Z,2.08
2023-04-24T14:38:10.949Z,2.22
2023-04-24T14:41:02.722Z,1.98
2023-04-24T14:43:27.666Z,1.55
2023-04-24T14:45:55.449Z,1.80
2023-04-24T14:48:22.989Z,1.50
2023-04-24T14:50:50.647Z,1.70
2023-04-24T14:53:18.464Z,1.55
2023-04-24T14:55:46.306Z,1.40
2023-04-24T14:58:14.005Z,1.20
2023-04-24T15:00:43.040Z,1.17
2023-04-24T15:03:10.889Z,1.75
2023-04-24T15:05:39.315Z,2.08
2023-04-24T15:08:07.097Z,1.55
2023-04-24T15:10:35.025Z,1.60
2023-04-24T15:13:02.601Z,1.10
2023-04-24T15:15:30.165Z,2.10
2023-04-24T15:17:59.194Z,2.05
2023-04-24T15:20:26.818Z,1.70
2023-04-24T15:22:54.389Z,1.10
2023-04-24T15:25:22.054Z,1.27
2023-04-24T15:27:50.296Z,1.67
2023-04-24T15:30:17.927Z,1.58
2023-04-24T15:32:45.533Z,2.22
2023-04-24T15:35:14.576Z,1.80
2023-04-24T15:37:43.035Z,1.63
2023-04-24T15:40:12.288Z,1.90
2023-04-24T15:42:39.921Z,1.40
2023-04-24T15:45:07.845Z,1.60
2023-04-24T15:47:36.313Z,1.67
2023-04-24T15:50:04.747Z,1.73
2023-04-24T15:52:33.684Z,2.65
2023-04-24T15:55:01.309Z,1.65
2023-04-24T15:57:36.349Z,1.73
2023-04-24T16:00:04.350Z,1.85
2023-04-24T16:02:32.002Z,2.35
2023-04-24T16:04:59.818Z,1.55
2023-04-24T16:07:27.564Z,1.65
2023-04-24T16:09:57.552Z,1.40
2023-04-24T16:12:27.731Z,2.08
2023-04-24T16:14:55.578Z,1.73
2023-04-24T16:17:23.160Z,1.65
2023-04-24T16:19:50.745Z,2.05
2023-04-24T16:22:18.303Z,2.03
2023-04-24T16:24:47.927Z,2.13
2023-04-24T16:27:17.129Z,1.95
2023-04-24T16:29:44.876Z,1.83
2023-04-24T16:32:12.718Z,1.45
2023-04-24T16:34:40.535Z,1.50
2023-04-24T16:37:08.110Z,1.23
2023-04-24T16:39:35.802Z,1.42
2023-04-24T16:42:03.412Z,1.40
2023-04-24T16:44:32.450Z,1.63
2023-04-24T16:47:00.158Z,1.38
2023-04-24T16:49:31.110Z,1.67
2023-04-24T16:51:58.720Z,2.08
2023-04-24T16:54:26.284Z,1.27
2023-04-24T16:56:54.238Z,2.00
2023-04-24T16:59:21.860Z,1.40
2023-04-24T17:01:50.799Z,1.42
2023-04-24T17:04:18.725Z,1.45
2023-04-24T17:06:46.395Z,1.60
2023-04-24T17:09:15.686Z,1.95
2023-04-24T17:11:43.285Z,1.40
2023-04-24T17:14:10.830Z,1.80
2023-04-24T17:16:40.302Z,2.13
2023-04-24T17:19:09.422Z,2.28
2023-04-24T17:21:37.014Z,1.75
2023-04-24T17:24:04.777Z,1.60
2023-04-24T17:26:32.440Z,1.75
2023-04-24T17:29:00.124Z,2.35
2023-04-24T17:31:27.687Z,1.95
2023-04-24T17:33:55.326Z,1.73
2023-04-24T17:36:24.293Z,1.98
2023-04-24T17:38:51.917Z,2.05
2023-04-24T17:41:19.625Z,2.10
2023-04-24T17:43:47.261Z,2.13
2023-04-24T17:46:14.873Z,2.28
2023-04-24T17:48:42.858Z,2.90
2023-04-24T17:51:10.566Z,2.78
2023-04-24T17:53:39.576Z,2.20
2023-04-24T17:56:07.575Z,2.42
2023-04-24T17:58:35.943Z,2.30
2023-04-24T18:01:03.556Z,2.63
2023-04-24T18:03:31.674Z,3.15
2023-04-24T18:06:02.173Z,2.72
2023-04-24T18:08:29.780Z,2.40
2023-04-24T18:10:59.289Z,2.42
2023-04-24T18:13:26.862Z,2.42
2023-04-24T18:15:54.462Z,2.70
2023-04-24T18:18:22.086Z,2.25
2023-04-24T18:20:49.651Z,1.88
2023-04-24T18:23:17.245Z,2.63
2023-04-24T18:25:44.855Z,2.35
2023-04-24T18:28:13.788Z,2.75
2023-04-24T18:30:41.339Z,2.58
2023-04-24T18:33:09.365Z,2.90
2023-04-24T18:35:37.011Z,2.55
2023-04-24T18:38:04.589Z,2.20
2023-04-24T18:40:32.192Z,2.88
2023-04-24T18:42:59.788Z,2.55
2023-04-24T18:45:28.711Z,2.92
2023-04-24T18:47:56.560Z,2.40
2023-04-24T18:50:25.683Z,2.38
2023-04-24T18:52:53.295Z,3.40
2023-04-24T18:55:21.068Z,3.03
2023-04-24T18:57:48.652Z,3.17
2023-04-24T19:00:16.407Z,3.25
2023-04-24T19:02:45.535Z,2.75
2023-04-24T19:05:13.236Z,2.65
2023-04-24T19:07:42.266Z,3.20
2023-04-24T19:10:10.488Z,3.28
2023-04-24T19:12:38.066Z,2.30
2023-04-24T19:15:06.159Z,2.78
2023-04-24T19:17:33.897Z,2.72
2023-04-24T19:20:03.259Z,2.45
2023-04-24T19:22:30.905Z,2.40
2023-04-24T19:24:58.842Z,2.85
2023-04-24T19:27:26.475Z,3.00
2023-04-24T19:29:54.065Z,3.03
2023-04-24T19:32:21.878Z,3.00
2023-04-24T19:34:49.713Z,3.83
2023-04-24T19:37:18.749Z,3.00
2023-04-24T19:39:46.328Z,3.55
2023-04-24T19:42:13.960Z,2.75
2023-04-24T19:44:41.523Z,3.10
2023-04-24T19:47:09.079Z,4.05
2023-04-24T19:49:36.703Z,2.97
2023-04-24T19:52:04.276Z,3.38
2023-04-24T19:54:33.394Z,3.05
2023-04-24T19:57:01.827Z,3.65
2023-04-24T19:59:29.398Z,3.40
2023-04-24T20:01:57.208Z,2.83
2023-04-24T20:04:25.197Z,4.13
2023-04-24T20:06:52.881Z,3.92
2023-04-24T20:09:20.448Z,3.00
2023-04-24T20:11:51.307Z,2.88
2023-04-24T20:14:18.932Z,3.40
2023-04-24T20:16:46.596Z,3.63
2023-04-24T20:19:17.125Z,4.32
2023-04-24T20:25:08.992Z,3.75
2023-04-24T20:27:39.083Z,3.70
2023-04-24T20:30:10.541Z,3.80
2023-04-24T20:33:36.028Z,3.72
2023-04-24T20:36:04.136Z,3.97
2023-04-24T20:38:32.030Z,3.25
2023-04-24T20:41:00.219Z,3.40
2023-04-24T20:43:29.548Z,3.00
2023-04-24T20:45:58.529Z,4.45
2023-04-24T20:48:26.588Z,4.43
2023-04-24T20:50:54.656Z,4.50
2023-04-24T20:53:22.579Z,4.10
2023-04-24T20:55:50.232Z,4.75
2023-04-24T20:58:20.969Z,3.58
2023-04-24T21:00:50.550Z,3.95
2023-04-24T21:03:18.486Z,4.68
2023-04-24T21:05:46.224Z,4.30
2023-04-24T21:08:14.272Z,4.30
2023-04-24T21:10:41.936Z,4.78
2023-04-24T21:13:10.000Z,5.90
2023-04-24T21:15:37.847Z,6.20
2023-04-24T21:18:07.070Z,6.32
2023-04-24T21:20:34.791Z,5.60
2023-04-24T21:23:02.631Z,4.57
2023-04-24T21:25:31.035Z,5.45
2023-04-24T21:27:59.485Z,4.50
2023-04-24T21:30:27.412Z,5.45
2023-04-24T21:32:56.038Z,5.28
2023-04-24T21:35:25.121Z,5.07
2023-04-24T21:37:53.050Z,3.95
2023-04-24T21:40:20.954Z,4.60
2023-04-24T21:42:48.650Z,6.47
2023-04-24T21:45:16.378Z,4.57
2023-04-24T21:47:43.986Z,4.72
2023-04-24T21:50:12.196Z,4.50
2023-04-24T21:52:41.189Z,4.43
2023-04-24T21:55:09.215Z,4.15
2023-04-24T21:57:40.545Z,4.80
2023-04-24T22:00:11.449Z,5.68
2023-04-24T22:02:39.702Z,5.47
2023-04-24T22:05:08.642Z,3.75
2023-04-24T22:07:36.549Z,4.22
2023-04-24T22:10:06.598Z,3.60
2023-04-24T22:12:34.373Z,5.10
2023-04-24T22:15:02.036Z,5.93
2023-04-24T22:17:29.757Z,8.35
2023-04-24T22:19:57.636Z,6.70
2023-04-24T22:22:25.274Z,8.57
2023-04-24T22:24:52.988Z,6.72
2023-04-24T22:27:21.981Z,4.63
2023-04-24T22:29:49.599Z,4.72
2023-04-24T22:32:17.349Z,6.05
2023-04-24T22:34:46.127Z,4.47
2023-04-24T22:37:14.018Z,4.97
2023-04-24T22:39:42.090Z,4.43
2023-04-24T22:42:09.752Z,4.43
2023-04-24T22:44:38.713Z,4.80
2023-04-24T22:47:08.481Z,4.78
2023-04-24T22:49:36.351Z,5.63
2023-04-24T22:52:05.140Z,7.88
2023-04-24T22:54:33.009Z,7.80
2023-04-24T22:57:01.088Z,7.20
2023-04-24T22:59:29.484Z,8.07
2023-04-24T23:01:59.364Z,8.95
2023-04-24T23:04:27.198Z,7.20
2023-04-24T23:06:55.259Z,7.78
2023-04-24T23:09:23.038Z,10.35
2023-04-24T23:11:50.689Z,9.10
2023-04-24T23:14:18.309Z,10.43
2023-04-24T23:16:46.478Z,9.75
2023-04-24T23:19:15.594Z,9.90
2023-04-24T23:21:43.269Z,10.55
2023-04-24T23:24:10.996Z,10.38
2023-04-24T23:26:38.650Z,9.82
2023-04-24T23:29:06.313Z,9.55
2023-04-24T23:31:34.627Z,9.13
2023-04-24T23:34:02.445Z,10.88
2023-04-24T23:36:31.784Z,12.30
2023-04-24T23:38:59.469Z,11.15
2023-04-24T23:41:27.312Z,11.10
2023-04-24T23:43:54.921Z,11.18
2023-04-24T23:46:22.904Z,10.25
2023-04-24T23:48:50.754Z,10.77
2023-04-24T23:51:18.782Z,9.73
2023-04-24T23:53:48.023Z,9.45
2023-04-24T23:56:15.901Z,10.82
2023-04-24T23:58:43.815Z,9.23
